This is the latest recevied weather packets stored in our database for station/object K5NCO. If no packets are shown the sender has not sent any weather packets the latest 1 day(s).
| Time | Temp. | Humidity | Pressure | Rain* | Wind** | Luminosity | Snow |
|---|---|---|---|---|---|---|---|
| 1778078901 | 21.67° C | 90% | 1012.5 hPa | 0 mm | - | 19 W/m² | - |
| 1778078597 | 25° C | 86% | 1012.4 hPa | 0 mm | - | 37 W/m² | - |
| 1778078295 | 25° C | 89% | 1012.2 hPa | 0 mm | - | 70 W/m² | - |
| 1778064324 | 23.89° C | 94% | 1010.6 hPa | 0 mm | - | 0 W/m² | - |
| 1778064016 | 23.89° C | 94% | 1010.6 hPa | 0 mm | - | 0 W/m² | - |
| 1778063713 | 23.89° C | 94% | 1010.6 hPa | 0 mm | - | 0 W/m² | - |
| 1778052243 | 23.89° C | 92% | 1009.8 hPa | 0 mm | - | 0 W/m² | - |
| 1778050164 | 23.89° C | 92% | 1009.9 hPa | 0 mm | - | 0 W/m² | - |
| 1778049255 | 24.44° C | 92% | 1009.9 hPa | 0 mm | - | 0 W/m² | - |
| 1778048651 | 23.89° C | 92% | 1009.8 hPa | 0 mm | - | 0 W/m² | - |
| 1778047439 | 23.89° C | 92% | 1009.7 hPa | 0 mm | - | 0 W/m² | - |
| 1778046226 | 23.89° C | 92% | 1009.9 hPa | 0 mm | - | 0 W/m² | - |
| 1778045621 | 23.89° C | 92% | 1009.9 hPa | 0 mm | - | 0 W/m² | - |
| 1778045319 | 23.89° C | 92% | 1010.1 hPa | 0 mm | - | 0 W/m² | - |
| 1778044715 | 24.44° C | 91% | 1010 hPa | 0 mm | - | 0 W/m² | - |
| 1778044411 | 24.44° C | 91% | 1010 hPa | 0 mm | - | 0 W/m² | - |
| 1778043199 | 24.44° C | 92% | 1010.1 hPa | 0 mm | - | 0 W/m² | - |
| 1778042896 | 24.44° C | 92% | 1009.8 hPa | 0 mm | - | 0 W/m² | - |
| 1778042594 | 24.44° C | 92% | 1009.8 hPa | 0 mm | - | 0 W/m² | - |
| 1778042290 | 24.44° C | 92% | 1009.9 hPa | 0 mm | - | 0 W/m² | - |
| 1778041385 | 24.44° C | 91% | 1009.8 hPa | 0 mm | - | 0 W/m² | - |
| 1778040779 | 24.44° C | 91% | 1009.7 hPa | 0 mm | - | 0 W/m² | - |
| 1778040477 | 24.44° C | 91% | 1009.7 hPa | 0 mm | - | 0 W/m² | - |
| 1778039871 | 25° C | 90% | 1009.6 hPa | 0 mm | - | 0 W/m² | - |
| 1778039568 | 25° C | 89% | 1009.4 hPa | 0 mm | - | 0 W/m² | - |
* Rain latest hour (hover to see other rain measurements)
** Current wind speed in m/s (hover to see current wind gust speed)